sensor_id;sensor_type;location;lat;lon;timestamp;pressure;altitude;pressure_sealevel;temperature;humidity
51617;BME280;37697;52.588;13.394;2023-06-10T00:04:46;101182.13;;;15.49;65.96
51617;BME280;37697;52.588;13.394;2023-06-10T00:09:53;101177.98;;;15.45;65.86
51617;BME280;37697;52.588;13.394;2023-06-10T00:14:58;101189.11;;;15.40;66.15
51617;BME280;37697;52.588;13.394;2023-06-10T00:20:04;101185.29;;;15.33;66.35
51617;BME280;37697;52.588;13.394;2023-06-10T00:25:14;101185.41;;;15.26;66.52
51617;BME280;37697;52.588;13.394;2023-06-10T00:30:20;101184.64;;;15.21;66.64
51617;BME280;37697;52.588;13.394;2023-06-10T00:35:26;101182.73;;;15.16;66.79
51617;BME280;37697;52.588;13.394;2023-06-10T00:40:33;101181.23;;;15.09;67.01
51617;BME280;37697;52.588;13.394;2023-06-10T00:45:38;101176.68;;;15.04;67.21
51617;BME280;37697;52.588;13.394;2023-06-10T00:50:44;101175.82;;;14.99;67.48
51617;BME280;37697;52.588;13.394;2023-06-10T00:55:50;101177.40;;;14.94;67.44
51617;BME280;37697;52.588;13.394;2023-06-10T01:00:56;101178.21;;;14.89;67.87
51617;BME280;37697;52.588;13.394;2023-06-10T01:06:09;101176.67;;;14.84;67.87
51617;BME280;37697;52.588;13.394;2023-06-10T01:11:23;101179.09;;;14.76;68.20
51617;BME280;37697;52.588;13.394;2023-06-10T01:16:30;101189.92;;;14.68;68.32
51617;BME280;37697;52.588;13.394;2023-06-10T01:21:38;101191.02;;;14.64;68.50
51617;BME280;37697;52.588;13.394;2023-06-10T01:26:47;101195.14;;;14.57;68.83
51617;BME280;37697;52.588;13.394;2023-06-10T01:32:01;101192.20;;;14.50;69.09
51617;BME280;37697;52.588;13.394;2023-06-10T01:37:10;101196.17;;;14.45;69.41
51617;BME280;37697;52.588;13.394;2023-06-10T01:42:18;101199.84;;;14.40;69.63
51617;BME280;37697;52.588;13.394;2023-06-10T01:47:23;101196.82;;;14.37;69.80
51617;BME280;37697;52.588;13.394;2023-06-10T01:52:29;101197.22;;;14.32;69.94
51617;BME280;37697;52.588;13.394;2023-06-10T01:57:35;101195.09;;;14.29;70.04
51617;BME280;37697;52.588;13.394;2023-06-10T02:02:40;101199.21;;;14.26;70.14
51617;BME280;37697;52.588;13.394;2023-06-10T02:07:46;101199.29;;;14.23;70.11
51617;BME280;37697;52.588;13.394;2023-06-10T02:12:51;101197.71;;;14.17;70.32
51617;BME280;37697;52.588;13.394;2023-06-10T02:17:57;101202.70;;;14.14;70.62
51617;BME280;37697;52.588;13.394;2023-06-10T02:23:03;101206.86;;;14.09;70.75
51617;BME280;37697;52.588;13.394;2023-06-10T02:28:09;101205.69;;;14.00;71.03
51617;BME280;37697;52.588;13.394;2023-06-10T02:33:14;101209.92;;;13.92;71.14
51617;BME280;37697;52.588;13.394;2023-06-10T02:38:20;101208.00;;;13.87;71.31
51617;BME280;37697;52.588;13.394;2023-06-10T02:43:26;101211.94;;;13.82;71.51
51617;BME280;37697;52.588;13.394;2023-06-10T02:48:31;101209.31;;;13.80;72.00
51617;BME280;37697;52.588;13.394;2023-06-10T02:53:37;101204.90;;;13.77;72.22
51617;BME280;37697;52.588;13.394;2023-06-10T02:58:42;101208.49;;;13.75;72.34
51617;BME280;37697;52.588;13.394;2023-06-10T03:03:48;101209.48;;;13.73;72.56
51617;BME280;37697;52.588;13.394;2023-06-10T03:08:55;101204.27;;;13.69;72.59
51617;BME280;37697;52.588;13.394;2023-06-10T03:14:01;101205.73;;;13.68;72.99
51617;BME280;37697;52.588;13.394;2023-06-10T03:19:06;101211.36;;;13.67;73.37
51617;BME280;37697;52.588;13.394;2023-06-10T03:24:12;101208.82;;;13.64;73.42
51617;BME280;37697;52.588;13.394;2023-06-10T03:29:18;101209.11;;;13.61;73.53
51617;BME280;37697;52.588;13.394;2023-06-10T03:34:23;101212.75;;;13.62;73.69
51617;BME280;37697;52.588;13.394;2023-06-10T03:39:29;101215.61;;;13.62;73.88
51617;BME280;37697;52.588;13.394;2023-06-10T03:44:35;101217.76;;;13.65;74.01
51617;BME280;37697;52.588;13.394;2023-06-10T03:49:40;101221.05;;;13.69;74.12
51617;BME280;37697;52.588;13.394;2023-06-10T03:54:46;101221.10;;;13.72;74.00
51617;BME280;37697;52.588;13.394;2023-06-10T03:59:51;101225.39;;;13.73;74.32
51617;BME280;37697;52.588;13.394;2023-06-10T04:04:56;101231.55;;;13.75;74.25
51617;BME280;37697;52.588;13.394;2023-06-10T04:10:02;101228.69;;;13.79;74.26
51617;BME280;37697;52.588;13.394;2023-06-10T04:15:09;101230.10;;;13.81;74.38
51617;BME280;37697;52.588;13.394;2023-06-10T04:20:15;101233.38;;;13.87;74.42
51617;BME280;37697;52.588;13.394;2023-06-10T04:25:21;101233.20;;;13.91;74.68
51617;BME280;37697;52.588;13.394;2023-06-10T04:30:27;101227.77;;;13.96;74.54
51617;BME280;37697;52.588;13.394;2023-06-10T04:35:33;101231.70;;;14.03;74.85
51617;BME280;37697;52.588;13.394;2023-06-10T04:40:38;101232.91;;;14.08;74.84
51617;BME280;37697;52.588;13.394;2023-06-10T04:45:44;101238.03;;;14.09;75.17
51617;BME280;37697;52.588;13.394;2023-06-10T04:50:52;101241.44;;;14.15;75.07
51617;BME280;37697;52.588;13.394;2023-06-10T04:55:58;101251.30;;;14.19;75.12
51617;BME280;37697;52.588;13.394;2023-06-10T05:01:03;101252.48;;;14.25;75.36
51617;BME280;37697;52.588;13.394;2023-06-10T05:06:09;101253.52;;;14.32;75.18
51617;BME280;37697;52.588;13.394;2023-06-10T05:11:15;101263.05;;;14.43;75.20
51617;BME280;37697;52.588;13.394;2023-06-10T05:16:20;101266.46;;;14.66;74.88
51617;BME280;37697;52.588;13.394;2023-06-10T05:21:27;101266.23;;;15.15;74.16
51617;BME280;37697;52.588;13.394;2023-06-10T05:26:32;101261.34;;;15.42;73.98
51617;BME280;37697;52.588;13.394;2023-06-10T05:31:42;101268.17;;;15.52;73.65
51617;BME280;37697;52.588;13.394;2023-06-10T05:36:48;101273.27;;;15.63;73.61
51617;BME280;37697;52.588;13.394;2023-06-10T05:41:53;101267.18;;;15.90;73.30
51617;BME280;37697;52.588;13.394;2023-06-10T05:46:58;101267.75;;;16.46;73.15
51617;BME280;37697;52.588;13.394;2023-06-10T05:52:05;101269.58;;;17.00;71.72
51617;BME280;37697;52.588;13.394;2023-06-10T05:57:11;101267.70;;;17.14;70.63
51617;BME280;37697;52.588;13.394;2023-06-10T06:02:16;101270.42;;;17.25;70.21
51617;BME280;37697;52.588;13.394;2023-06-10T06:07:22;101264.88;;;17.68;69.85
51617;BME280;37697;52.588;13.394;2023-06-10T06:12:27;101269.68;;;17.91;69.01
51617;BME280;37697;52.588;13.394;2023-06-10T06:17:33;101279.13;;;18.01;68.63
51617;BME280;37697;52.588;13.394;2023-06-10T06:22:38;101282.65;;;18.06;68.12
51617;BME280;37697;52.588;13.394;2023-06-10T06:27:44;101283.64;;;18.04;67.86
51617;BME280;37697;52.588;13.394;2023-06-10T06:32:50;101290.14;;;18.12;67.56
51617;BME280;37697;52.588;13.394;2023-06-10T06:37:57;101293.50;;;18.11;67.29
51617;BME280;37697;52.588;13.394;2023-06-10T06:43:04;101295.92;;;18.08;66.71
51617;BME280;37697;52.588;13.394;2023-06-10T06:48:09;101299.88;;;18.09;67.10
51617;BME280;37697;52.588;13.394;2023-06-10T06:53:15;101301.77;;;18.19;67.04
51617;BME280;37697;52.588;13.394;2023-06-10T06:58:21;101307.25;;;18.25;66.81
51617;BME280;37697;52.588;13.394;2023-06-10T07:03:26;101309.20;;;18.35;66.95
51617;BME280;37697;52.588;13.394;2023-06-10T07:08:32;101309.09;;;18.70;66.59
51617;BME280;37697;52.588;13.394;2023-06-10T07:13:37;101310.35;;;19.04;66.03
51617;BME280;37697;52.588;13.394;2023-06-10T07:18:43;101311.55;;;19.38;65.37
51617;BME280;37697;52.588;13.394;2023-06-10T07:23:48;101313.73;;;19.84;64.96
51617;BME280;37697;52.588;13.394;2023-06-10T07:28:54;101311.87;;;20.35;64.57
51617;BME280;37697;52.588;13.394;2023-06-10T07:34:00;101319.81;;;20.73;63.24
51617;BME280;37697;52.588;13.394;2023-06-10T07:39:05;101324.50;;;20.81;62.37
51617;BME280;37697;52.588;13.394;2023-06-10T07:44:12;101324.98;;;20.75;61.77
51617;BME280;37697;52.588;13.394;2023-06-10T07:49:18;101329.36;;;20.87;61.95
51617;BME280;37697;52.588;13.394;2023-06-10T07:54:23;101332.55;;;21.30;61.18
51617;BME280;37697;52.588;13.394;2023-06-10T07:59:29;101331.29;;;21.34;60.28
51617;BME280;37697;52.588;13.394;2023-06-10T08:04:34;101333.02;;;21.24;60.06
51617;BME280;37697;52.588;13.394;2023-06-10T08:09:41;101335.93;;;21.25;59.87
51617;BME280;37697;52.588;13.394;2023-06-10T08:14:46;101335.98;;;21.56;59.84
51617;BME280;37697;52.588;13.394;2023-06-10T08:19:52;101340.70;;;22.08;59.22
51617;BME280;37697;52.588;13.394;2023-06-10T08:24:57;101347.76;;;22.38;58.45
51617;BME280;37697;52.588;13.394;2023-06-10T08:30:03;101351.48;;;22.22;57.69
51617;BME280;37697;52.588;13.394;2023-06-10T08:35:09;101363.20;;;22.00;58.03
51617;BME280;37697;52.588;13.394;2023-06-10T08:40:15;101360.48;;;21.86;57.56
51617;BME280;37697;52.588;13.394;2023-06-10T08:45:22;101364.84;;;21.67;57.63
51617;BME280;37697;52.588;13.394;2023-06-10T08:50:29;101366.84;;;21.71;57.70
51617;BME280;37697;52.588;13.394;2023-06-10T08:55:37;101368.23;;;21.61;57.64
51617;BME280;37697;52.588;13.394;2023-06-10T09:00:43;101367.46;;;21.37;57.53
51617;BME280;37697;52.588;13.394;2023-06-10T09:05:49;101368.58;;;21.34;57.84
51617;BME280;37697;52.588;13.394;2023-06-10T09:10:55;101367.58;;;21.32;57.89
51617;BME280;37697;52.588;13.394;2023-06-10T09:16:00;101372.05;;;21.39;58.11
51617;BME280;37697;52.588;13.394;2023-06-10T09:21:07;101371.45;;;21.34;57.88
51617;BME280;37697;52.588;13.394;2023-06-10T09:26:12;101367.80;;;21.23;57.71
51617;BME280;37697;52.588;13.394;2023-06-10T09:31:18;101375.48;;;20.98;57.91
51617;BME280;37697;52.588;13.394;2023-06-10T09:36:27;101380.23;;;20.81;58.41
51617;BME280;37697;52.588;13.394;2023-06-10T09:41:35;101379.87;;;20.57;59.13
51617;BME280;37697;52.588;13.394;2023-06-10T09:46:46;101378.01;;;20.42;60.33
51617;BME280;37697;52.588;13.394;2023-06-10T09:51:53;101366.42;;;20.46;61.13
51617;BME280;37697;52.588;13.394;2023-06-10T09:56:59;101364.69;;;20.49;61.83
51617;BME280;37697;52.588;13.394;2023-06-10T10:02:05;101364.62;;;20.50;62.61
51617;BME280;37697;52.588;13.394;2023-06-10T10:07:15;101369.52;;;20.39;63.36
51617;BME280;37697;52.588;13.394;2023-06-10T10:12:21;101377.52;;;20.32;64.16
51617;BME280;37697;52.588;13.394;2023-06-10T10:17:28;101377.15;;;20.30;64.49
51617;BME280;37697;52.588;13.394;2023-06-10T10:22:40;101385.09;;;20.33;64.76
51617;BME280;37697;52.588;13.394;2023-06-10T10:27:54;101384.45;;;20.31;65.10
51617;BME280;37697;52.588;13.394;2023-06-10T10:33:06;101384.16;;;20.34;65.50
51617;BME280;37697;52.588;13.394;2023-06-10T10:38:16;101381.20;;;20.31;64.47
51617;BME280;37697;52.588;13.394;2023-06-10T10:43:22;101370.63;;;20.28;63.74
51617;BME280;37697;52.588;13.394;2023-06-10T10:48:28;101359.48;;;20.26;62.99
51617;BME280;37697;52.588;13.394;2023-06-10T10:53:38;101352.24;;;20.25;62.04
51617;BME280;37697;52.588;13.394;2023-06-10T10:58:44;101336.96;;;20.24;61.28
51617;BME280;37697;52.588;13.394;2023-06-10T11:04:08;101331.08;;;20.28;61.83
51617;BME280;37697;52.588;13.394;2023-06-10T11:09:30;101307.70;;;20.32;63.10
51617;BME280;37697;52.588;13.394;2023-06-10T11:14:35;101313.55;;;20.38;64.74
51617;BME280;37697;52.588;13.394;2023-06-10T11:19:45;101307.30;;;20.49;66.14
51617;BME280;37697;52.588;13.394;2023-06-10T11:24:52;101315.98;;;20.71;66.58
51617;BME280;37697;52.588;13.394;2023-06-10T11:30:19;101324.35;;;20.91;66.29
51617;BME280;37697;52.588;13.394;2023-06-10T11:35:26;101330.80;;;21.15;65.46
51617;BME280;37697;52.588;13.394;2023-06-10T11:40:32;101332.02;;;21.61;65.35
51617;BME280;37697;52.588;13.394;2023-06-10T11:45:42;101333.11;;;22.02;64.55
51617;BME280;37697;52.588;13.394;2023-06-10T11:50:47;101330.53;;;22.31;63.99
51617;BME280;37697;52.588;13.394;2023-06-10T11:55:53;101329.16;;;22.76;63.78
51617;BME280;37697;52.588;13.394;2023-06-10T12:00:59;101327.66;;;23.22;63.66
51617;BME280;37697;52.588;13.394;2023-06-10T12:06:07;101330.59;;;23.77;62.39
51617;BME280;37697;52.588;13.394;2023-06-10T12:11:13;101326.63;;;24.21;59.02
51617;BME280;37697;52.588;13.394;2023-06-10T12:16:18;101324.86;;;24.42;57.17
51617;BME280;37697;52.588;13.394;2023-06-10T12:21:25;101320.84;;;24.68;55.40
51617;BME280;37697;52.588;13.394;2023-06-10T12:26:45;101314.02;;;25.13;54.76
51617;BME280;37697;52.588;13.394;2023-06-10T12:31:58;101309.58;;;25.67;52.88
51617;BME280;37697;52.588;13.394;2023-06-10T12:37:07;101307.41;;;26.08;51.84
51617;BME280;37697;52.588;13.394;2023-06-10T12:42:21;101302.25;;;26.53;51.34
51617;BME280;37697;52.588;13.394;2023-06-10T12:47:32;101294.88;;;26.83;50.33
51617;BME280;37697;52.588;13.394;2023-06-10T12:52:38;101289.64;;;26.98;49.77
51617;BME280;37697;52.588;13.394;2023-06-10T12:57:50;101278.52;;;27.20;49.97
51617;BME280;37697;52.588;13.394;2023-06-10T13:02:56;101273.90;;;27.38;49.48
51617;BME280;37697;52.588;13.394;2023-06-10T13:08:03;101269.77;;;27.48;48.39
51617;BME280;37697;52.588;13.394;2023-06-10T13:13:09;101265.36;;;27.61;48.69
51617;BME280;37697;52.588;13.394;2023-06-10T13:18:16;101261.02;;;27.82;48.14
51617;BME280;37697;52.588;13.394;2023-06-10T13:23:24;101263.46;;;28.06;46.51
51617;BME280;37697;52.588;13.394;2023-06-10T13:28:30;101255.53;;;28.03;46.01
51617;BME280;37697;52.588;13.394;2023-06-10T13:33:38;101251.38;;;28.07;45.58
51617;BME280;37697;52.588;13.394;2023-06-10T13:38:44;101242.94;;;28.13;44.89
51617;BME280;37697;52.588;13.394;2023-06-10T13:43:50;101242.09;;;28.22;44.72
51617;BME280;37697;52.588;13.394;2023-06-10T13:48:55;101236.27;;;28.32;44.04
51617;BME280;37697;52.588;13.394;2023-06-10T13:54:01;101233.11;;;28.35;42.75
51617;BME280;37697;52.588;13.394;2023-06-10T13:59:06;101228.45;;;28.42;43.12
51617;BME280;37697;52.588;13.394;2023-06-10T14:04:12;101225.99;;;28.33;43.05
51617;BME280;37697;52.588;13.394;2023-06-10T14:09:18;101228.91;;;28.32;42.86
51617;BME280;37697;52.588;13.394;2023-06-10T14:14:24;101235.85;;;28.24;42.22
51617;BME280;37697;52.588;13.394;2023-06-10T14:19:29;101232.92;;;28.13;41.85
51617;BME280;37697;52.588;13.394;2023-06-10T14:24:35;101225.61;;;28.18;41.17
51617;BME280;37697;52.588;13.394;2023-06-10T14:29:41;101222.54;;;28.17;41.46
51617;BME280;37697;52.588;13.394;2023-06-10T14:34:47;101217.51;;;28.21;40.70
51617;BME280;37697;52.588;13.394;2023-06-10T14:39:52;101212.66;;;28.18;40.28
51617;BME280;37697;52.588;13.394;2023-06-10T14:44:58;101214.78;;;28.15;39.72
51617;BME280;37697;52.588;13.394;2023-06-10T14:50:04;101209.39;;;28.12;39.10
51617;BME280;37697;52.588;13.394;2023-06-10T14:55:10;101217.89;;;28.11;38.48
51617;BME280;37697;52.588;13.394;2023-06-10T15:00:17;101214.52;;;28.07;37.29
51617;BME280;37697;52.588;13.394;2023-06-10T15:05:25;101219.21;;;28.04;36.81
51617;BME280;37697;52.588;13.394;2023-06-10T15:10:30;101216.55;;;28.05;37.37
51617;BME280;37697;52.588;13.394;2023-06-10T15:15:36;101216.52;;;28.09;36.85
51617;BME280;37697;52.588;13.394;2023-06-10T15:20:42;101217.40;;;28.11;36.43
51617;BME280;37697;52.588;13.394;2023-06-10T15:25:47;101212.64;;;28.07;36.65
51617;BME280;37697;52.588;13.394;2023-06-10T15:30:53;101211.42;;;27.94;36.79
51617;BME280;37697;52.588;13.394;2023-06-10T15:35:58;101211.35;;;27.85;37.11
51617;BME280;37697;52.588;13.394;2023-06-10T15:41:04;101217.66;;;27.84;37.41
51617;BME280;37697;52.588;13.394;2023-06-10T15:46:09;101227.44;;;27.65;37.17
51617;BME280;37697;52.588;13.394;2023-06-10T15:51:15;101225.26;;;27.40;37.15
51617;BME280;37697;52.588;13.394;2023-06-10T15:56:20;101221.16;;;27.25;37.18
51617;BME280;37697;52.588;13.394;2023-06-10T16:01:26;101218.76;;;27.03;37.51
51617;BME280;37697;52.588;13.394;2023-06-10T16:06:31;101220.48;;;26.78;37.79
51617;BME280;37697;52.588;13.394;2023-06-10T16:11:37;101216.92;;;26.66;38.44
51617;BME280;37697;52.588;13.394;2023-06-10T16:16:42;101216.19;;;26.62;39.13
51617;BME280;37697;52.588;13.394;2023-06-10T16:21:48;101214.64;;;26.57;38.63
51617;BME280;37697;52.588;13.394;2023-06-10T16:26:53;101215.34;;;26.54;38.60
51617;BME280;37697;52.588;13.394;2023-06-10T16:31:59;101215.85;;;26.61;38.29
51617;BME280;37697;52.588;13.394;2023-06-10T16:37:08;101209.24;;;26.70;37.63
51617;BME280;37697;52.588;13.394;2023-06-10T16:42:14;101211.10;;;26.75;35.50
51617;BME280;37697;52.588;13.394;2023-06-10T16:47:19;101213.20;;;26.79;34.90
51617;BME280;37697;52.588;13.394;2023-06-10T16:52:25;101211.66;;;26.83;34.25
51617;BME280;37697;52.588;13.394;2023-06-10T16:57:31;101212.56;;;26.86;33.42
51617;BME280;37697;52.588;13.394;2023-06-10T17:02:36;101218.38;;;26.89;33.43
51617;BME280;37697;52.588;13.394;2023-06-10T17:07:42;101218.29;;;26.87;32.98
51617;BME280;37697;52.588;13.394;2023-06-10T17:12:47;101221.60;;;26.85;32.78
51617;BME280;37697;52.588;13.394;2023-06-10T17:17:53;101220.30;;;26.83;32.69
51617;BME280;37697;52.588;13.394;2023-06-10T17:22:58;101222.23;;;26.79;32.60
51617;BME280;37697;52.588;13.394;2023-06-10T17:28:05;101223.77;;;26.73;32.21
51617;BME280;37697;52.588;13.394;2023-06-10T17:33:10;101228.38;;;26.66;32.41
51617;BME280;37697;52.588;13.394;2023-06-10T17:38:16;101231.00;;;26.54;32.68
51617;BME280;37697;52.588;13.394;2023-06-10T17:43:22;101233.64;;;26.42;32.84
51617;BME280;37697;52.588;13.394;2023-06-10T17:48:28;101242.98;;;26.32;33.04
51617;BME280;37697;52.588;13.394;2023-06-10T17:53:33;101250.21;;;26.22;33.40
51617;BME280;37697;52.588;13.394;2023-06-10T17:58:39;101255.25;;;26.08;33.49
51617;BME280;37697;52.588;13.394;2023-06-10T18:03:46;101257.74;;;25.91;33.83
51617;BME280;37697;52.588;13.394;2023-06-10T18:08:52;101257.34;;;25.74;34.34
51617;BME280;37697;52.588;13.394;2023-06-10T18:13:57;101258.46;;;25.59;34.44
51617;BME280;37697;52.588;13.394;2023-06-10T18:19:03;101263.94;;;25.45;34.88
51617;BME280;37697;52.588;13.394;2023-06-10T18:24:09;101268.77;;;25.30;35.07
51617;BME280;37697;52.588;13.394;2023-06-10T18:29:15;101270.52;;;25.21;35.32
51617;BME280;37697;52.588;13.394;2023-06-10T18:34:21;101272.05;;;25.11;35.57
51617;BME280;37697;52.588;13.394;2023-06-10T18:39:26;101278.57;;;25.01;35.85
51617;BME280;37697;52.588;13.394;2023-06-10T18:44:32;101287.23;;;24.89;36.19
51617;BME280;37697;52.588;13.394;2023-06-10T18:49:37;101292.34;;;24.75;36.47
51617;BME280;37697;52.588;13.394;2023-06-10T18:54:43;101302.58;;;24.60;36.82
51617;BME280;37697;52.588;13.394;2023-06-10T18:59:48;101309.64;;;24.46;37.33
51617;BME280;37697;52.588;13.394;2023-06-10T19:04:54;101316.81;;;24.34;37.85
51617;BME280;37697;52.588;13.394;2023-06-10T19:10:00;101321.14;;;24.19;38.49
51617;BME280;37697;52.588;13.394;2023-06-10T19:15:08;101328.08;;;24.01;39.10
51617;BME280;37697;52.588;13.394;2023-06-10T19:20:17;101337.36;;;23.87;39.62
51617;BME280;37697;52.588;13.394;2023-06-10T19:25:22;101345.95;;;23.72;40.10
51617;BME280;37697;52.588;13.394;2023-06-10T19:30:27;101349.89;;;23.57;40.66
51617;BME280;37697;52.588;13.394;2023-06-10T19:35:36;101352.29;;;23.40;41.01
51617;BME280;37697;52.588;13.394;2023-06-10T19:40:41;101359.52;;;23.27;41.44
51617;BME280;37697;52.588;13.394;2023-06-10T19:45:47;101363.12;;;23.12;41.68
51617;BME280;37697;52.588;13.394;2023-06-10T19:50:52;101366.89;;;22.99;41.89
51617;BME280;37697;52.588;13.394;2023-06-10T19:55:58;101371.39;;;22.87;41.92
51617;BME280;37697;52.588;13.394;2023-06-10T20:01:03;101375.21;;;22.77;41.99
51617;BME280;37697;52.588;13.394;2023-06-10T20:06:09;101380.00;;;22.63;41.96
51617;BME280;37697;52.588;13.394;2023-06-10T20:11:16;101390.73;;;22.50;41.86
51617;BME280;37697;52.588;13.394;2023-06-10T20:16:21;101394.33;;;22.39;41.83
51617;BME280;37697;52.588;13.394;2023-06-10T20:21:27;101401.98;;;22.26;41.84
51617;BME280;37697;52.588;13.394;2023-06-10T20:26:32;101404.38;;;22.15;41.82
51617;BME280;37697;52.588;13.394;2023-06-10T20:31:38;101416.86;;;22.03;41.78
51617;BME280;37697;52.588;13.394;2023-06-10T20:36:44;101418.57;;;21.90;41.72
51617;BME280;37697;52.588;13.394;2023-06-10T20:41:49;101423.77;;;21.80;41.87
51617;BME280;37697;52.588;13.394;2023-06-10T20:46:55;101426.58;;;21.67;41.77
51617;BME280;37697;52.588;13.394;2023-06-10T20:52:00;101430.21;;;21.55;41.94
51617;BME280;37697;52.588;13.394;2023-06-10T20:57:07;101438.37;;;21.44;41.87
51617;BME280;37697;52.588;13.394;2023-06-10T21:02:12;101440.13;;;21.35;42.24
51617;BME280;37697;52.588;13.394;2023-06-10T21:07:18;101441.27;;;21.22;42.21
51617;BME280;37697;52.588;13.394;2023-06-10T21:12:23;101448.00;;;21.11;42.45
51617;BME280;37697;52.588;13.394;2023-06-10T21:17:29;101450.92;;;21.01;42.48
51617;BME280;37697;52.588;13.394;2023-06-10T21:22:35;101458.52;;;20.89;42.54
51617;BME280;37697;52.588;13.394;2023-06-10T21:27:41;101466.01;;;20.77;42.61
51617;BME280;37697;52.588;13.394;2023-06-10T21:32:46;101469.25;;;20.68;42.67
51617;BME280;37697;52.588;13.394;2023-06-10T21:37:52;101469.60;;;20.58;42.85
51617;BME280;37697;52.588;13.394;2023-06-10T21:42:58;101470.52;;;20.46;42.94
51617;BME280;37697;52.588;13.394;2023-06-10T21:48:04;101477.25;;;20.37;42.98
51617;BME280;37697;52.588;13.394;2023-06-10T21:53:09;101482.23;;;20.25;42.93
51617;BME280;37697;52.588;13.394;2023-06-10T21:58:15;101487.19;;;20.12;42.96
51617;BME280;37697;52.588;13.394;2023-06-10T22:03:21;101490.98;;;19.98;43.10
51617;BME280;37697;52.588;13.394;2023-06-10T22:08:27;101494.98;;;19.89;42.92
51617;BME280;37697;52.588;13.394;2023-06-10T22:13:32;101494.08;;;19.81;42.69
51617;BME280;37697;52.588;13.394;2023-06-10T22:18:38;101489.80;;;19.68;42.59
51617;BME280;37697;52.588;13.394;2023-06-10T22:23:43;101490.82;;;19.60;42.56
51617;BME280;37697;52.588;13.394;2023-06-10T22:28:49;101492.86;;;19.50;42.71
51617;BME280;37697;52.588;13.394;2023-06-10T22:33:54;101495.50;;;19.41;42.77
51617;BME280;37697;52.588;13.394;2023-06-10T22:39:01;101496.75;;;19.31;42.58
51617;BME280;37697;52.588;13.394;2023-06-10T22:44:06;101498.63;;;19.19;42.62
51617;BME280;37697;52.588;13.394;2023-06-10T22:49:12;101496.76;;;19.05;42.56
51617;BME280;37697;52.588;13.394;2023-06-10T22:54:18;101499.38;;;18.96;42.76
51617;BME280;37697;52.588;13.394;2023-06-10T22:59:24;101500.70;;;18.86;42.58
51617;BME280;37697;52.588;13.394;2023-06-10T23:04:30;101497.10;;;18.78;42.72
51617;BME280;37697;52.588;13.394;2023-06-10T23:09:36;101497.70;;;18.68;43.12
51617;BME280;37697;52.588;13.394;2023-06-10T23:14:41;101496.61;;;18.56;43.37
51617;BME280;37697;52.588;13.394;2023-06-10T23:19:47;101499.73;;;18.47;43.56
51617;BME280;37697;52.588;13.394;2023-06-10T23:24:53;101498.56;;;18.39;43.62
51617;BME280;37697;52.588;13.394;2023-06-10T23:30:01;101502.70;;;18.29;43.75
51617;BME280;37697;52.588;13.394;2023-06-10T23:35:08;101503.03;;;18.15;44.16
51617;BME280;37697;52.588;13.394;2023-06-10T23:40:16;101503.89;;;18.01;44.26
51617;BME280;37697;52.588;13.394;2023-06-10T23:45:23;101507.36;;;17.87;44.58
51617;BME280;37697;52.588;13.394;2023-06-10T23:50:28;101510.14;;;17.76;44.97
51617;BME280;37697;52.588;13.394;2023-06-10T23:55:35;101515.05;;;17.58;45.51
